Time;durP1;ratioP1;P1;durP2;ratioP2;P2;SDS_P1;SDS_P2;PMS_P1;PMS_P2;Temp;Humidity;BMP_temperature;BMP_pressure;BME280_temperature;BME280_humidity;BME280_pressure;Samples;Min_cycle;Max_cycle;Signal;HPM_P1;HPM_P2
2021/04/01 00:00:52;;;;;;;52.13;25.00;;;;;;;8.60;69.73;99889.97;5119363;28;20054;-45
2021/04/01 00:03:18;;;;;;;49.67;24.63;;;;;;;8.57;70.06;99886.53;5118159;28;20054;-45
2021/04/01 00:05:44;;;;;;;51.17;24.42;;;;;;;8.55;69.69;99886.59;5119080;28;20131;-45
2021/04/01 00:08:10;;;;;;;46.20;23.77;;;;;;;8.52;70.10;99885.78;5118050;28;20375;-45
2021/04/01 00:10:44;;;;;;;49.60;24.88;;;;;;;8.52;70.18;99881.41;5118810;27;20056;-45
2021/04/01 00:13:10;;;;;;;41.78;22.58;;;;;;;8.45;70.16;99882.41;5118859;28;20047;-45
2021/04/01 00:15:38;;;;;;;50.58;22.80;;;;;;;8.44;69.98;99872.81;5118199;28;20100;-45
2021/04/01 00:18:06;;;;;;;39.65;21.58;;;;;;;8.42;70.36;99872.00;5118731;28;20046;-45
2021/04/01 00:20:31;;;;;;;45.40;24.00;;;;;;;8.35;70.47;99863.38;5117848;28;20057;-44
2021/04/01 00:22:57;;;;;;;45.72;24.52;;;;;;;8.33;70.67;99861.66;5118953;28;20342;-45
2021/04/01 00:25:23;;;;;;;44.90;24.95;;;;;;;8.28;70.53;99864.31;5118924;28;20504;-45
2021/04/01 00:27:49;;;;;;;48.05;23.40;;;;;;;8.25;70.79;99853.94;5117991;28;20323;-44
2021/04/01 00:30:15;;;;;;;46.28;23.98;;;;;;;8.25;70.27;99859.16;5118807;28;20362;-45
2021/04/01 00:32:42;;;;;;;43.45;21.33;;;;;;;8.22;70.82;99853.97;5118563;28;20073;-45
2021/04/01 00:35:08;;;;;;;41.38;22.02;;;;;;;8.19;70.64;99854.91;5118393;28;20441;-45
2021/04/01 00:37:33;;;;;;;38.70;21.73;;;;;;;8.18;70.72;99855.75;5118816;28;20057;-45
2021/04/01 00:39:59;;;;;;;39.58;21.25;;;;;;;8.16;71.03;99854.09;5118327;28;20051;-45
2021/04/01 00:42:25;;;;;;;42.90;23.10;;;;;;;8.13;71.11;99851.53;5118345;28;20051;-45
2021/04/01 00:44:51;;;;;;;44.03;21.52;;;;;;;8.11;70.82;99848.06;5118581;27;20051;-45
2021/04/01 00:47:17;;;;;;;45.10;20.52;;;;;;;8.04;71.27;99839.47;5118210;28;20472;-45
2021/04/01 00:49:42;;;;;;;37.90;20.95;;;;;;;8.01;70.94;99849.06;5118216;28;20036;-45
2021/04/01 00:52:08;;;;;;;39.30;21.13;;;;;;;7.96;70.95;99838.69;5118363;28;20058;-44
2021/04/01 00:54:35;;;;;;;41.90;22.60;;;;;;;7.91;71.38;99828.34;5118334;28;20126;-45
2021/04/01 00:57:01;;;;;;;37.58;21.08;;;;;;;7.89;71.15;99829.22;5117950;28;20069;-45
2021/04/01 00:59:26;;;;;;;40.83;20.30;;;;;;;7.81;71.15;99831.97;5117075;28;20047;-45
2021/04/01 01:01:56;;;;;;;34.53;19.83;;;;;;;7.79;71.13;99823.28;5117332;28;20050;-44
2021/04/01 01:04:22;;;;;;;40.50;22.10;;;;;;;7.72;71.30;99817.28;5117854;28;20453;-45
2021/04/01 01:06:47;;;;;;;40.17;20.83;;;;;;;7.67;71.63;99818.22;5117239;28;20076;-44
2021/04/01 01:09:13;;;;;;;35.15;19.23;;;;;;;7.67;71.34;99815.63;5116882;28;20052;-44
2021/04/01 01:11:39;;;;;;;35.08;19.42;;;;;;;7.69;71.19;99816.47;5117669;28;20400;-44
2021/04/01 01:14:06;;;;;;;35.53;18.42;;;;;;;7.70;71.56;99818.19;5118246;28;20043;-44
2021/04/01 01:16:32;;;;;;;39.67;19.48;;;;;;;7.66;71.57;99811.28;5117827;27;20058;-44
2021/04/01 01:18:58;;;;;;;36.67;21.08;;;;;;;7.66;71.58;99803.47;5117524;27;20048;-44
2021/04/01 01:21:25;;;;;;;33.47;18.92;;;;;;;7.64;71.62;99802.66;5117784;28;20052;-44
2021/04/01 01:23:50;;;;;;;38.83;20.00;;;;;;;7.58;71.35;99794.91;5116623;28;20120;-45
2021/04/01 01:26:18;;;;;;;35.92;19.90;;;;;;;7.57;71.74;99795.75;5118210;28;20047;-45
2021/04/01 01:28:43;;;;;;;40.75;20.13;;;;;;;7.49;72.20;99786.31;5117495;28;20430;-44
2021/04/01 01:31:10;;;;;;;40.50;20.33;;;;;;;7.46;72.18;99781.13;5116524;28;20054;-44
2021/04/01 01:33:42;;;;;;;35.85;20.13;;;;;;;7.45;71.94;99784.63;5117227;28;20047;-44
2021/04/01 01:36:09;;;;;;;34.53;18.73;;;;;;;7.43;71.92;99777.72;5117593;28;20108;-44
2021/04/01 01:38:35;;;;;;;36.65;18.83;;;;;;;7.41;72.10;99785.56;5116463;28;20100;-44
2021/04/01 01:41:01;;;;;;;37.03;20.00;;;;;;;7.40;71.94;99781.22;5117441;28;20055;-44
2021/04/01 01:43:27;;;;;;;37.78;20.27;;;;;;;7.37;71.70;99769.97;5117137;28;20481;-44
2021/04/01 01:45:53;;;;;;;37.45;19.35;;;;;;;7.32;71.73;99767.44;5117292;28;20040;-44
2021/04/01 01:48:18;;;;;;;35.72;19.13;;;;;;;7.29;72.05;99762.25;5117030;28;20422;-44
2021/04/01 01:50:44;;;;;;;39.33;20.25;;;;;;;7.28;71.71;99757.03;5116123;28;20062;-44
2021/04/01 01:53:10;;;;;;;34.25;18.98;;;;;;;7.25;71.95;99760.56;5116970;28;20065;-44
2021/04/01 01:55:36;;;;;;;38.58;19.17;;;;;;;7.23;71.74;99755.38;5117703;28;20175;-44
2021/04/01 01:58:03;;;;;;;35.05;17.55;;;;;;;7.21;71.87;99744.13;5117027;28;20044;-44
2021/04/01 02:00:48;;;;;;;32.05;17.17;;;;;;;7.19;72.23;99748.47;5116838;28;20039;-44
2021/04/01 02:03:13;;;;;;;32.33;18.13;;;;;;;7.17;72.59;99738.94;5117080;28;20043;-44
2021/04/01 02:05:39;;;;;;;29.50;16.85;;;;;;;7.16;72.43;99745.06;5116710;28;20495;-44
2021/04/01 02:08:06;;;;;;;32.70;15.90;;;;;;;7.15;72.75;99744.19;5116644;28;20048;-44
2021/04/01 02:10:37;;;;;;;31.02;16.90;;;;;;;7.14;72.56;99744.19;5116443;28;20055;-44
2021/04/01 02:13:03;;;;;;;32.20;17.15;;;;;;;7.10;72.97;99743.38;5116643;28;20131;-44
2021/04/01 02:15:30;;;;;;;32.13;19.05;;;;;;;7.09;73.06;99743.41;5116539;28;20442;-44
2021/04/01 02:18:02;;;;;;;26.70;15.63;;;;;;;7.08;73.00;99739.91;5116731;28;20051;-44
2021/04/01 02:20:28;;;;;;;33.13;17.17;;;;;;;7.01;73.06;99733.06;5116576;28;20384;-44
2021/04/01 02:22:54;;;;;;;35.67;18.27;;;;;;;6.95;72.89;99722.72;5117045;28;20039;-44
2021/04/01 02:25:20;;;;;;;36.95;18.38;;;;;;;6.90;72.76;99725.38;5116511;28;20417;-44
2021/04/01 02:27:45;;;;;;;38.05;19.10;;;;;;;6.90;72.74;99729.72;5098617;28;20424;-44
2021/04/01 02:30:12;;;;;;;36.60;19.27;;;;;;;6.89;72.81;99728.00;5116698;28;20055;-44
2021/04/01 02:32:38;;;;;;;35.72;18.67;;;;;;;6.86;73.02;99722.81;5116705;28;20326;-44
2021/04/01 02:35:04;;;;;;;36.08;18.40;;;;;;;6.85;73.10;99728.91;5116388;28;20066;-44
2021/04/01 02:37:29;;;;;;;35.00;17.77;;;;;;;6.83;73.15;99730.69;5116338;28;20050;-44
2021/04/01 02:39:55;;;;;;;35.42;17.77;;;;;;;6.77;74.43;99719.44;5116904;28;20047;-44
2021/04/01 02:42:21;;;;;;;34.05;17.42;;;;;;;6.77;73.89;99721.19;5116687;28;20376;-44
2021/04/01 02:44:47;;;;;;;32.15;17.08;;;;;;;6.77;73.81;99722.06;5120832;28;20056;-44
2021/04/01 02:47:12;;;;;;;33.20;16.98;;;;;;;6.74;73.91;99723.81;5121089;28;20054;-44
2021/04/01 02:49:38;;;;;;;32.97;17.35;;;;;;;6.74;73.83;99723.81;5119861;28;20052;-44
2021/04/01 02:52:04;;;;;;;37.08;18.38;;;;;;;6.74;74.50;99722.09;5119556;28;20052;-44
2021/04/01 02:54:30;;;;;;;29.75;16.67;;;;;;;6.72;74.57;99729.03;5120119;28;20108;-44
2021/04/01 02:56:56;;;;;;;31.95;16.10;;;;;;;6.75;74.67;99721.19;5120889;28;20044;-44
2021/04/01 02:59:22;;;;;;;33.40;17.10;;;;;;;6.74;74.71;99716.88;5120577;28;20441;-44
2021/04/01 03:01:48;;;;;;;32.50;18.60;;;;;;;6.75;75.50;99726.41;5119352;28;20048;-44
2021/04/01 03:04:13;;;;;;;35.08;18.70;;;;;;;6.81;75.03;99717.66;5120461;28;20065;-44
2021/04/01 03:06:39;;;;;;;35.70;18.08;;;;;;;6.83;74.47;99722.88;5120180;28;20337;-44
2021/04/01 03:09:05;;;;;;;34.42;19.10;;;;;;;6.85;74.35;99723.69;5119880;28;20151;-44
2021/04/01 03:11:31;;;;;;;35.13;18.92;;;;;;;6.83;74.10;99715.94;5120348;28;20039;-44
2021/04/01 03:13:57;;;;;;;35.05;18.80;;;;;;;6.82;74.69;99718.53;5120346;28;20156;-44
2021/04/01 03:16:24;;;;;;;38.72;21.30;;;;;;;6.87;74.34;99715.00;5120208;28;20052;-44
2021/04/01 03:18:50;;;;;;;39.03;20.92;;;;;;;6.86;74.22;99707.19;5119986;28;20040;-44
2021/04/01 03:21:15;;;;;;;39.08;19.88;;;;;;;6.85;74.02;99705.47;5120169;28;20062;-44
2021/04/01 03:23:41;;;;;;;34.45;19.15;;;;;;;6.85;74.01;99705.47;5118982;28;20043;-44
2021/04/01 03:26:07;;;;;;;37.97;19.45;;;;;;;6.78;74.04;99705.53;5120075;28;20057;-44
2021/04/01 03:28:33;;;;;;;35.97;19.25;;;;;;;6.76;74.23;99709.06;5120087;28;20048;-44
2021/04/01 03:31:01;;;;;;;40.45;20.30;;;;;;;6.74;74.45;99703.00;5119124;28;20108;-44
2021/04/01 03:33:30;;;;;;;40.05;21.35;;;;;;;6.76;74.12;99704.72;5119606;28;20468;-44
2021/04/01 03:35:56;;;;;;;37.65;19.60;;;;;;;6.73;74.34;99698.69;5119213;28;20047;-44
2021/04/01 03:38:22;;;;;;;35.47;18.45;;;;;;;6.72;74.08;99705.59;5119760;28;20043;-44
2021/04/01 03:40:51;;;;;;;40.97;21.45;;;;;;;6.65;74.50;99698.75;5119772;28;20445;-44
2021/04/01 03:43:21;;;;;;;33.30;19.02;;;;;;;6.65;74.17;99692.69;5118868;28;20058;-45
2021/04/01 03:45:47;;;;;;;36.05;20.20;;;;;;;6.63;74.85;99692.72;5119695;28;20051;-44
2021/04/01 03:48:12;;;;;;;37.28;19.88;;;;;;;6.66;74.32;99690.09;5119619;28;20486;-44
2021/04/01 03:50:38;;;;;;;43.80;20.38;;;;;;;6.62;75.06;99690.97;5119301;28;20047;-44
2021/04/01 03:53:04;;;;;;;38.47;20.13;;;;;;;6.62;74.98;99690.97;5118632;28;20080;-44
2021/04/01 03:58:05;;;;;;;43.28;22.17;;;;;;;6.58;75.21;99685.84;5119062;28;20513;-44
2021/04/01 04:00:34;;;;;;;38.55;19.58;;;;;;;6.60;75.08;99687.56;5119152;28;20063;-44
2021/04/01 04:03:33;;;;;;;38.67;20.90;;;;;;;6.61;74.55;99683.19;5119349;28;20052;-44
2021/04/01 04:06:00;;;;;;;35.60;19.95;;;;;;;6.58;74.47;99683.22;5119446;28;20051;-44
2021/04/01 04:11:28;;;;;;;41.55;19.80;;;;;;;6.51;74.17;99678.09;5118963;28;20047;-44
2021/04/01 04:14:01;;;;;;;38.38;19.20;;;;;;;6.47;74.21;99679.00;5118818;28;20048;-44
2021/04/01 04:16:27;;;;;;;39.92;20.48;;;;;;;6.44;74.15;99673.84;5119076;28;20051;-44
2021/04/01 04:18:53;;;;;;;36.33;20.40;;;;;;;6.40;74.04;99673.88;5118774;28;20139;-44
2021/04/01 04:21:19;;;;;;;37.83;20.17;;;;;;;6.39;74.49;99667.81;5118751;28;20088;-44
2021/04/01 04:23:47;;;;;;;37.10;19.25;;;;;;;6.40;74.11;99661.75;5118134;28;20077;-44
2021/04/01 04:26:13;;;;;;;40.83;19.05;;;;;;;6.36;73.78;99654.81;5118692;28;20379;-44
2021/04/01 04:28:40;;;;;;;37.60;19.65;;;;;;;6.36;73.75;99657.44;5117836;28;20039;-44
2021/04/01 04:31:06;;;;;;;42.38;20.70;;;;;;;6.32;73.55;99647.94;5117843;28;20066;-44
2021/04/01 04:33:31;;;;;;;34.38;17.58;;;;;;;6.30;73.54;99650.56;5118385;28;20418;-44
2021/04/01 04:35:57;;;;;;;37.17;20.58;;;;;;;6.28;73.69;99647.09;5118720;28;20043;-44
2021/04/01 04:38:23;;;;;;;41.13;20.55;;;;;;;6.26;74.22;99648.00;5118408;28;20035;-44
2021/04/01 04:40:54;;;;;;;43.97;20.90;;;;;;;6.24;74.91;99653.22;5118982;28;20070;-44
2021/04/01 04:43:20;;;;;;;40.03;20.02;;;;;;;6.24;75.09;99661.03;5118509;28;20057;-44
2021/04/01 04:45:45;;;;;;;37.67;20.08;;;;;;;6.26;75.38;99658.41;5118385;28;20043;-44
2021/04/01 04:48:11;;;;;;;38.55;19.77;;;;;;;6.30;75.27;99655.78;5118465;28;20050;-44
2021/04/01 04:50:37;;;;;;;38.60;20.48;;;;;;;6.33;75.24;99654.84;5118427;28;20448;-44
2021/04/01 04:53:03;;;;;;;37.92;18.85;;;;;;;6.35;75.66;99647.91;5118202;28;20440;-44
2021/04/01 04:55:29;;;;;;;35.92;19.83;;;;;;;6.44;74.99;99650.41;5118240;28;20345;-44
2021/04/01 04:58:04;;;;;;;40.90;22.10;;;;;;;6.45;75.69;99652.13;5111053;28;20050;-44
2021/04/01 05:05:40;;;;;;;45.33;23.02;;;;;;;6.62;76.40;99656.28;5095631;28;20040;-44
2021/04/01 05:08:06;;;;;;;52.47;24.58;;;;;;;6.71;76.49;99656.19;5095509;28;20130;-45
2021/04/01 05:10:32;;;;;;;44.08;22.35;;;;;;;6.79;76.28;99644.81;5097014;28;20056;-44
2021/04/01 05:15:33;;;;;;;49.35;24.13;;;;;;;7.03;75.80;99645.38;5117794;28;20046;-44
2021/04/01 05:18:14;;;;;;;51.70;27.55;;;;;;;7.13;75.55;99646.97;5117804;28;20043;-44
2021/04/01 05:20:44;;;;;;;48.92;27.40;;;;;;;7.26;75.26;99642.44;5117546;28;20054;-44
2021/04/01 05:23:28;;;;;;;53.15;27.80;;;;;;;7.39;75.16;99645.75;5116572;28;20055;-45
2021/04/01 05:26:11;;;;;;;98.28;45.03;;;;;;;7.43;75.47;99637.84;5115585;28;20101;-45
2021/04/01 05:28:38;;;;;;;96.25;44.75;;;;;;;7.96;75.78;99633.53;5109457;28;20055;-45
2021/04/01 05:31:07;;;;;;;87.03;42.45;;;;;;;8.60;75.41;99646.31;5099586;28;20040;-45
2021/04/01 05:33:34;;;;;;;80.55;39.83;;;;;;;9.25;73.91;99640.59;5097514;28;20047;-44
2021/04/01 05:36:05;;;;;;;66.50;34.28;;;;;;;9.90;72.30;99642.56;5096312;28;20446;-45
2021/04/01 05:38:32;;;;;;;62.85;33.17;;;;;;;10.53;70.30;99628.72;5096827;28;20378;-45
2021/04/01 05:40:58;;;;;;;54.83;28.50;;;;;;;10.98;68.26;99633.53;5097050;28;20051;-45
2021/04/01 05:43:25;;;;;;;52.50;26.92;;;;;;;11.14;66.53;99631.31;5095860;28;20468;-45
2021/04/01 05:45:55;;;;;;;44.85;24.63;;;;;;;11.95;66.36;99625.28;5079528;28;20044;-46
2021/04/01 05:48:32;;;;;;;44.50;25.38;;;;;;;12.64;64.08;99628.97;5096837;28;20055;-45
2021/04/01 05:51:32;;;;;;;48.42;26.88;;;;;;;13.24;61.92;99616.25;5081339;28;20055;-45
2021/04/01 06:06:52;;;;;;;44.17;25.60;;;;;;;15.93;54.23;99615.81;5116989;28;20059;-46
2021/04/01 06:09:23;;;;;;;46.17;27.25;;;;;;;16.05;52.65;99608.13;5115809;28;20059;-46
2021/04/01 06:11:53;;;;;;;43.50;24.15;;;;;;;16.38;52.41;99620.56;5117304;28;20035;-46
2021/04/01 06:14:54;;;;;;;45.90;27.10;;;;;;;15.89;52.10;99617.72;5116956;28;20051;-46
2021/04/01 06:17:19;;;;;;;46.40;27.23;;;;;;;15.75;53.07;99623.69;5099927;28;20188;-46
2021/04/01 06:19:47;;;;;;;44.00;27.33;;;;;;;15.68;52.91;99630.22;5098857;28;20047;-46
2021/04/01 06:22:13;;;;;;;41.50;25.23;;;;;;;15.67;53.74;99614.47;5116879;28;20047;-46
2021/04/01 06:24:39;;;;;;;44.80;26.95;;;;;;;16.11;52.70;99607.78;5098674;28;20361;-46
2021/04/01 06:27:17;;;;;;;41.03;26.55;;;;;;;16.62;51.53;99605.19;5116792;28;20048;-46
2021/04/01 06:30:10;;;;;;;46.30;27.05;;;;;;;17.11;50.65;99610.50;5115814;28;20039;-46
2021/04/01 06:32:32;;;;;;;41.78;25.63;;;;;;;17.43;50.21;99607.84;5116389;28;20066;-46
2021/04/01 06:35:29;;;;;;;44.00;28.20;;;;;;;17.72;48.70;99612.34;5116677;28;20043;-45
2021/04/01 06:38:16;;;;;;;47.05;29.35;;;;;;;17.78;48.01;99603.22;5116613;28;20051;-46
2021/04/01 06:40:43;;;;;;;44.35;27.30;;;;;;;17.65;48.26;99607.50;5116655;28;20078;-46
2021/04/01 06:43:17;;;;;;;47.80;27.05;;;;;;;17.72;48.40;99603.53;5116302;28;20047;-46
2021/04/01 06:46:09;;;;;;;46.03;26.40;;;;;;;17.28;48.60;99609.56;5115442;28;20058;-46
2021/04/01 06:51:31;;;;;;;40.58;25.38;;;;;;;16.81;49.93;99605.09;5114626;28;20040;-46
2021/04/01 06:54:11;;;;;;;44.53;26.60;;;;;;;16.73;50.64;99605.44;5114426;28;20098;-46
2021/04/01 06:56:54;;;;;;;41.55;25.45;;;;;;;16.77;51.21;99612.34;5114316;28;20051;-46
2021/04/01 06:59:44;;;;;;;40.67;25.83;;;;;;;16.86;50.97;99602.19;5113871;28;20075;-46
2021/04/01 07:02:18;;;;;;;49.83;27.45;;;;;;;16.96;51.43;99598.09;5114610;28;20066;-46
2021/04/01 07:04:46;;;;;;;43.90;25.92;;;;;;;16.87;51.21;99596.81;5098941;28;20052;-46
2021/04/01 07:07:15;;;;;;;45.70;26.33;;;;;;;16.75;51.31;99600.13;5115290;28;20047;-46
2021/04/01 07:10:05;;;;;;;42.50;25.55;;;;;;;16.69;51.88;99595.97;5115373;28;20044;-46
2021/04/01 07:12:34;;;;;;;47.50;27.23;;;;;;;16.70;51.42;99597.69;5116114;28;20047;-46
2021/04/01 07:15:08;;;;;;;43.55;27.42;;;;;;;16.64;51.31;99597.16;5116645;28;20035;-46
2021/04/01 07:17:43;;;;;;;48.35;28.33;;;;;;;16.58;51.65;99599.19;5115465;28;20106;-46
2021/04/01 07:47:24;;;;;;;47.03;30.05;;;;;;;17.52;50.88;99580.84;5119789;28;20043;-47
2021/04/01 07:49:52;;;;;;;53.83;33.97;;;;;;;17.45;51.23;99580.34;5118865;28;20349;-47
2021/04/01 07:52:20;;;;;;;42.92;28.67;;;;;;;17.64;51.08;99585.44;5119606;28;20051;-47
2021/04/01 08:05:30;;;;;;;39.88;26.08;;;;;;;18.83;49.66;99576.59;5119410;28;20338;-47
2021/04/01 08:08:05;;;;;;;40.05;26.13;;;;;;;18.72;49.34;99574.63;5118496;28;20353;-47
2021/04/01 08:10:42;;;;;;;38.95;25.58;;;;;;;18.62;49.73;99569.00;5118070;28;20059;-47
2021/04/01 08:13:12;;;;;;;41.22;25.05;;;;;;;18.57;49.55;99565.78;5119251;28;20142;-47
2021/04/01 08:15:46;;;;;;;38.08;26.20;;;;;;;18.58;49.46;99563.97;5119210;28;20043;-47
2021/04/01 08:20:50;;;;;;;42.40;28.03;;;;;;;18.50;49.80;99563.63;5118890;28;20476;-47
2021/04/01 08:23:20;;;;;;;39.88;25.55;;;;;;;18.51;49.92;99565.31;5118019;28;20043;-47
2021/04/01 08:25:56;;;;;;;35.20;22.85;;;;;;;18.51;49.12;99565.31;5118794;27;20044;-47
2021/04/01 08:28:32;;;;;;;42.00;25.17;;;;;;;18.59;49.21;99561.25;5118906;28;20039;-47
2021/04/01 08:33:35;;;;;;;48.57;32.50;;;;;;;19.49;48.71;99551.97;5118245;28;20047;-47
2021/04/01 08:36:01;;;;;;;46.00;28.40;;;;;;;19.56;47.64;99544.44;5118869;28;20346;-47
2021/04/01 08:38:28;;;;;;;38.88;25.05;;;;;;;19.44;47.27;99554.09;5103878;28;20408;-46
2021/04/01 08:40:54;;;;;;;35.65;22.77;;;;;;;19.73;47.40;99546.03;5111306;28;20108;-47
2021/04/01 08:43:56;;;;;;;39.35;22.42;;;;;;;20.10;46.69;99541.72;5069696;28;20047;-47
2021/04/01 08:46:32;;;;;;;39.63;24.67;;;;;;;20.49;46.62;99539.91;5104448;28;20055;-47
2021/04/01 08:49:20;;;;;;;34.38;22.45;;;;;;;20.56;44.37;99545.69;5106753;28;20430;-47
2021/04/01 08:52:02;;;;;;;37.55;23.67;;;;;;;20.73;43.48;99540.88;5098055;28;20440;-47
2021/04/01 08:54:41;;;;;;;37.97;25.23;;;;;;;20.79;43.55;99539.56;5095467;28;20048;-47
2021/04/01 08:57:12;;;;;;;35.72;22.92;;;;;;;20.88;43.49;99544.25;5094676;28;20048;-47
2021/04/01 09:00:03;;;;;;;33.50;21.83;;;;;;;20.95;43.75;99534.84;5095147;28;20066;-47
2021/04/01 09:02:29;;;;;;;37.25;24.77;;;;;;;20.93;43.50;99538.59;5096499;28;20282;-47
2021/04/01 09:04:56;;;;;;;38.53;24.95;;;;;;;21.01;43.31;99538.88;5095738;28;20048;-47
2021/04/01 09:07:26;;;;;;;37.83;23.98;;;;;;;20.93;43.98;99541.28;5096653;28;20048;-47
2021/04/01 09:09:53;;;;;;;37.08;24.85;;;;;;;20.92;44.19;99534.22;5096553;28;20056;-47
2021/04/01 09:12:26;;;;;;;36.60;24.50;;;;;;;20.89;43.20;99537.09;5097711;28;20055;-47
2021/04/01 09:15:05;;;;;;;55.33;37.35;;;;;;;20.99;43.06;99540.78;5098118;28;20052;-47
2021/04/01 09:17:33;;;;;;;48.88;28.83;;;;;;;21.05;43.43;99527.03;5097000;28;20040;-47
2021/04/01 09:19:58;;;;;;;34.70;25.08;;;;;;;20.98;42.85;99523.13;5097296;28;20044;-47
2021/04/01 09:22:27;;;;;;;36.30;24.02;;;;;;;21.00;42.95;99524.72;5097497;28;20465;-47
2021/04/01 09:25:03;;;;;;;58.30;42.47;;;;;;;21.14;43.20;99525.53;5097438;28;20074;-47
2021/04/01 09:27:29;;;;;;;50.63;34.08;;;;;;;21.28;42.94;99519.19;5096240;28;20058;-47
2021/04/01 09:30:09;;;;;;;41.00;25.17;;;;;;;21.56;42.00;99523.34;5079441;28;20066;-47
2021/04/01 09:32:37;;;;;;;31.20;22.15;;;;;;;21.58;42.02;99513.41;5097017;28;20048;-47
2021/04/01 09:35:03;;;;;;;31.27;21.77;;;;;;;21.54;41.79;99515.47;5096158;28;20105;-47
2021/04/01 09:37:29;;;;;;;29.33;21.02;;;;;;;21.57;41.65;99509.91;5062724;28;20046;-47
2021/04/01 09:39:55;;;;;;;38.60;25.42;;;;;;;21.76;41.89;99514.69;5079518;28;20404;-47
2021/04/01 09:42:21;;;;;;;34.38;22.35;;;;;;;21.81;41.87;99511.69;5096863;28;20098;-47
2021/04/01 09:44:54;;;;;;;42.58;26.52;;;;;;;21.90;42.36;99514.50;5095960;28;20044;-47
2021/04/01 09:47:26;;;;;;;31.42;22.60;;;;;;;21.88;42.37;99512.91;5096822;28;20040;-47
2021/04/01 09:49:55;;;;;;;32.25;22.13;;;;;;;21.93;42.90;99508.06;5096727;28;20093;-47
2021/04/01 09:52:27;;;;;;;30.20;21.58;;;;;;;22.03;42.61;99506.38;5096542;28;20392;-47
2021/04/01 09:54:58;;;;;;;30.55;20.05;;;;;;;22.00;42.24;99501.31;5097001;28;20056;-47
2021/04/01 09:57:45;;;;;;;33.70;23.92;;;;;;;22.33;41.91;99495.19;5095713;28;20040;-48
2021/04/01 10:00:19;;;;;;;39.45;25.70;;;;;;;22.65;42.05;99491.78;5096695;28;20400;-47
2021/04/01 10:02:57;;;;;;;31.27;22.20;;;;;;;22.87;39.85;99490.91;5096536;28;20101;-48
2021/04/01 10:05:23;;;;;;;34.00;22.20;;;;;;;22.74;39.80;99490.19;5097115;28;20064;-48
2021/04/01 10:07:55;;;;;;;31.73;19.98;;;;;;;22.73;40.17;99491.19;5062560;28;20075;-48
2021/04/01 10:10:57;;;;;;;35.20;19.23;;;;;;;22.70;39.77;99489.59;5095590;28;20079;-48
2021/04/01 10:13:27;;;;;;;26.07;19.00;;;;;;;22.62;39.73;99492.91;5075210;28;20052;-48
2021/04/01 10:15:54;;;;;;;30.38;20.85;;;;;;;22.48;39.98;99490.44;5096896;28;20046;-48
2021/04/01 10:18:30;;;;;;;29.73;20.83;;;;;;;22.55;40.16;99480.97;5096309;28;20048;-47
2021/04/01 10:20:58;;;;;;;29.25;20.38;;;;;;;22.74;40.56;99468.84;5095696;28;20052;-48
2021/04/01 10:23:24;;;;;;;28.25;19.98;;;;;;;22.91;40.06;99471.00;5096226;28;20055;-48
2021/04/01 10:25:53;;;;;;;28.90;20.55;;;;;;;23.07;39.85;99468.81;5096111;28;20044;-48
2021/04/01 10:30:54;;;;;;;34.35;20.38;;;;;;;23.19;38.72;99463.41;5096239;28;20479;-47
2021/04/01 10:33:34;;;;;;;30.98;21.42;;;;;;;23.07;38.89;99451.91;5095361;28;20047;-47
2021/04/01 10:36:02;;;;;;;30.60;19.55;;;;;;;23.02;39.48;99454.13;5095481;28;20135;-47
2021/04/01 10:38:28;;;;;;;33.85;20.95;;;;;;;23.11;38.63;99450.72;5095073;28;20048;-47
2021/04/01 10:40:56;;;;;;;29.23;19.27;;;;;;;23.18;38.98;99443.88;5095972;28;20051;-48
2021/04/01 10:43:23;;;;;;;33.97;20.08;;;;;;;23.31;38.84;99441.03;5096022;28;20040;-48
2021/04/01 10:45:49;;;;;;;26.15;17.38;;;;;;;23.39;39.46;99443.91;5078360;28;20112;-48
2021/04/01 10:48:33;;;;;;;26.70;19.90;;;;;;;23.51;39.09;99445.53;5095917;28;20122;-48
2021/04/01 10:51:03;;;;;;;32.33;19.67;;;;;;;23.70;39.46;99442.19;5096190;28;20052;-48
2021/04/01 10:53:30;;;;;;;29.23;20.40;;;;;;;23.83;38.80;99435.81;5095030;28;20109;-48
2021/04/01 10:56:03;;;;;;;34.42;20.40;;;;;;;23.88;38.10;99434.41;5095836;28;20060;-48
2021/04/01 10:58:30;;;;;;;31.63;21.45;;;;;;;23.98;38.04;99435.34;5095729;28;20045;-48
2021/04/01 11:00:58;;;;;;;32.45;22.27;;;;;;;23.89;37.78;99430.78;5078196;28;20100;-48
2021/04/01 11:03:25;;;;;;;34.30;22.23;;;;;;;23.74;37.26;99430.25;5096730;28;20051;-47
2021/04/01 11:05:52;;;;;;;34.53;19.92;;;;;;;23.69;37.77;99421.78;5099822;28;20121;-47
2021/04/01 11:08:20;;;;;;;33.75;21.52;;;;;;;23.81;37.86;99430.56;5098922;28;20405;-48
2021/04/01 11:10:46;;;;;;;38.08;21.60;;;;;;;23.90;37.44;99416.41;5098827;28;20139;-48
2021/04/01 11:13:14;;;;;;;31.10;21.10;;;;;;;23.93;37.31;99418.81;5082178;28;20044;-48
2021/04/01 11:15:40;;;;;;;29.27;19.73;;;;;;;23.91;37.37;99417.25;5082137;28;20055;-47
2021/04/01 11:18:14;;;;;;;34.92;19.83;;;;;;;23.97;37.60;99416.72;5100115;28;20051;-48
2021/04/01 11:20:41;;;;;;;35.67;23.77;;;;;;;24.16;35.55;99413.28;5099595;28;20059;-48
2021/04/01 11:23:11;;;;;;;36.72;22.02;;;;;;;23.96;35.73;99420.38;5099470;28;20389;-48
2021/04/01 11:25:39;;;;;;;31.02;22.05;;;;;;;23.70;36.23;99409.28;5099557;28;20350;-47
2021/04/01 11:28:05;;;;;;;30.52;21.55;;;;;;;23.50;37.18;99421.63;5099392;28;20146;-47
2021/04/01 11:30:49;;;;;;;35.92;21.55;;;;;;;23.50;38.52;99416.28;5099670;28;20131;-47
2021/04/01 11:33:19;;;;;;;33.70;22.63;;;;;;;23.55;37.09;99411.38;5099606;28;20076;-47
2021/04/01 11:35:47;;;;;;;32.97;21.40;;;;;;;23.29;38.27;99408.25;5099334;28;20044;-47
2021/04/01 11:38:24;;;;;;;37.50;21.50;;;;;;;23.23;38.63;99411.44;5099139;28;20048;-47
2021/04/01 11:40:58;;;;;;;33.85;20.77;;;;;;;23.33;37.58;99407.88;5082095;28;20385;-47
2021/04/01 11:43:26;;;;;;;33.65;19.60;;;;;;;23.27;38.97;99411.06;5081531;28;20358;-47
2021/04/01 11:45:52;;;;;;;37.33;21.80;;;;;;;23.28;38.24;99403.88;5099236;28;20097;-47
2021/04/01 11:48:19;;;;;;;37.00;21.55;;;;;;;23.25;37.03;99410.34;5099354;28;20059;-47
2021/04/01 11:50:45;;;;;;;33.45;20.30;;;;;;;23.21;37.69;99406.22;5099016;28;20059;-47
2021/04/01 11:53:11;;;;;;;40.58;23.42;;;;;;;23.13;37.71;99405.16;5098418;28;20070;-47
2021/04/01 11:55:37;;;;;;;35.95;21.98;;;;;;;23.16;38.29;99400.41;5099126;28;20335;-60
2021/04/01 11:58:03;;;;;;;31.30;19.80;;;;;;;23.28;37.52;99396.72;5081068;28;20051;-61
2021/04/01 12:00:34;;;;;;;35.05;20.40;;;;;;;23.29;37.09;99405.56;5081355;28;20048;-60
2021/04/01 12:03:08;;;;;;;32.47;19.60;;;;;;;23.33;36.58;99407.00;5098801;28;20052;-61
2021/04/01 12:05:40;;;;;;;37.53;21.02;;;;;;;23.27;36.41;99399.53;5082280;28;20044;-61
2021/04/01 12:08:06;;;;;;;36.33;20.98;;;;;;;23.20;36.22;99396.50;5081883;28;20056;-61
2021/04/01 12:10:32;;;;;;;39.50;23.15;;;;;;;23.19;36.48;99400.16;5080974;28;20138;-61
2021/04/01 12:13:00;;;;;;;33.55;20.15;;;;;;;23.22;36.35;99407.06;5081014;28;20349;-61
2021/04/01 12:15:35;;;;;;;32.53;21.00;;;;;;;23.23;36.15;99406.94;5046769;28;20071;-61
2021/04/01 12:18:03;;;;;;;33.75;19.65;;;;;;;23.21;35.70;99402.72;5098502;28;20053;-60
2021/04/01 12:20:29;;;;;;;31.40;19.58;;;;;;;23.21;35.91;99397.38;5098481;28;20430;-61
2021/04/01 12:22:56;;;;;;;35.67;19.88;;;;;;;23.28;35.98;99407.41;5080870;28;20101;-61
2021/04/01 12:25:23;;;;;;;37.35;21.45;;;;;;;23.42;35.67;99408.91;5097459;28;20048;-61
2021/04/01 12:27:51;;;;;;;33.05;19.60;;;;;;;23.41;36.14;99393.00;5098180;28;20040;-61
2021/04/01 12:30:37;;;;;;;27.23;18.30;;;;;;;23.53;34.86;99400.00;5098409;28;20044;-61
2021/04/01 12:33:13;;;;;;;35.00;19.05;;;;;;;23.53;33.22;99391.97;5097437;28;20446;-61
2021/04/01 12:35:58;;;;;;;30.52;18.63;;;;;;;23.47;31.50;99398.69;5080444;28;20048;-61
2021/04/01 12:38:35;;;;;;;29.27;17.83;;;;;;;23.16;30.91;99407.59;5098052;28;20050;-60
2021/04/01 12:41:06;;;;;;;36.53;17.90;;;;;;;22.85;31.05;99396.75;5064012;28;20063;-61
2021/04/01 12:43:45;;;;;;;34.40;18.65;;;;;;;22.71;30.28;99400.53;5098015;28;20047;-60
2021/04/01 12:46:10;;;;;;;32.50;18.15;;;;;;;22.50;30.32;99411.16;5073372;28;20074;-61
2021/04/01 12:48:54;;;;;;;31.55;20.13;;;;;;;22.50;30.53;99408.47;5104195;28;20044;-60